Details for United Airlines at KEWR




Go Back


Latest METAR
Local Time

KEWR 232351Z 19004KT 2SM -DZ BR BKN006 BKN011 OVC020 04/03 A3032 RMK AO2 SFC VIS 3 RAE23DZB23 SLP268 P0001 60002 T00390033 10044 20039 58024

23/02/2018, 19:06:29

Description
Results
United Airlines Logo
Number of Pilots based at KEWR
0 Pilots Based here
Number of United Airlines Flights Departed from KEWR
1 Flights Departed
Number of United Airlines Flights Arrived at KEWR
1 Flights Arrived
Number of United Airlines Schedules Departing from KEWR
1038 Schedules
Number of United Airlines Schedules Arriving at KEWR
1014 Schedules
Number of United Airlines Schedules Departing from KEWR availible today
389 Schedules Today
Number of United Airlines Schedules Arriving at KEWR availible today
373 Schedules Today
Average Landing Rate at KEWR
-184 fpm
United Airlines Average Landing Rate at KEWR
-118 fpm
Total Fuel Purchased at KEWR by United Airlines
4,237.46 kgs / 9,341.90 lbs

Pilots Based at KEWR


Pilot ID
Pilot Name
Pilot Rank
No. of Flights
No. of Flying Hours
There are no pilots assigned to this hub!   Will you be the first?
Content